sensor_id;sensor_type;location;lat;lon;timestamp;pressure;altitude;pressure_sealevel;temperature;humidity
10261;BME280;5175;42.606;23.388;2022-10-22T00:01:03;94576.38;;;7.26;88.00
10261;BME280;5175;42.606;23.388;2022-10-22T00:03:30;94575.13;;;7.17;89.21
10261;BME280;5175;42.606;23.388;2022-10-22T00:05:57;94573.91;;;7.08;90.04
10261;BME280;5175;42.606;23.388;2022-10-22T00:08:24;94584.28;;;7.09;90.97
10261;BME280;5175;42.606;23.388;2022-10-22T00:10:52;94574.75;;;6.97;90.96
10261;BME280;5175;42.606;23.388;2022-10-22T00:13:19;94577.94;;;6.82;90.02
10261;BME280;5175;42.606;23.388;2022-10-22T00:15:46;94564.91;;;6.80;88.62
10261;BME280;5175;42.606;23.388;2022-10-22T00:18:13;94584.34;;;6.86;86.92
10261;BME280;5175;42.606;23.388;2022-10-22T00:20:40;94577.31;;;6.91;87.13
10261;BME280;5175;42.606;23.388;2022-10-22T00:23:07;94582.34;;;7.05;88.69
10261;BME280;5175;42.606;23.388;2022-10-22T00:25:35;94586.13;;;6.80;89.86
10261;BME280;5175;42.606;23.388;2022-10-22T00:28:03;94575.34;;;6.59;89.60
10261;BME280;5175;42.606;23.388;2022-10-22T00:30:30;94581.88;;;6.68;90.17
10261;BME280;5175;42.606;23.388;2022-10-22T00:32:57;94562.22;;;6.52;90.10
10261;BME280;5175;42.606;23.388;2022-10-22T00:35:25;94585.72;;;6.49;89.08
10261;BME280;5175;42.606;23.388;2022-10-22T00:37:52;94574.88;;;6.62;89.22
10261;BME280;5175;42.606;23.388;2022-10-22T00:40:19;94556.06;;;6.63;89.22
10261;BME280;5175;42.606;23.388;2022-10-22T00:42:46;94566.06;;;6.73;89.83
10261;BME280;5175;42.606;23.388;2022-10-22T00:45:21;94560.66;;;6.68;88.30
10261;BME280;5175;42.606;23.388;2022-10-22T00:47:52;94570.94;;;6.64;87.96
10261;BME280;5175;42.606;23.388;2022-10-22T00:50:24;94556.31;;;6.62;87.13
10261;BME280;5175;42.606;23.388;2022-10-22T00:52:53;94534.63;;;6.65;87.85
10261;BME280;5175;42.606;23.388;2022-10-22T00:55:21;94549.84;;;6.69;87.17
10261;BME280;5175;42.606;23.388;2022-10-22T00:57:50;94560.00;;;6.61;85.71
10261;BME280;5175;42.606;23.388;2022-10-22T01:00:19;94568.09;;;6.54;88.70
10261;BME280;5175;42.606;23.388;2022-10-22T01:02:47;94565.41;;;6.66;90.16
10261;BME280;5175;42.606;23.388;2022-10-22T01:05:15;94544.91;;;6.61;90.25
10261;BME280;5175;42.606;23.388;2022-10-22T01:07:45;94561.50;;;6.57;90.51
10261;BME280;5175;42.606;23.388;2022-10-22T01:10:22;94495.41;;;6.27;90.66
10261;BME280;5175;42.606;23.388;2022-10-22T01:12:58;94545.38;;;6.58;90.44
10261;BME280;5175;42.606;23.388;2022-10-22T01:15:35;94540.22;;;6.40;88.92
10261;BME280;5175;42.606;23.388;2022-10-22T01:18:11;94534.44;;;6.43;88.87
10261;BME280;5175;42.606;23.388;2022-10-22T01:20:52;94523.69;;;6.50;89.90
10261;BME280;5175;42.606;23.388;2022-10-22T01:23:53;94524.19;;;6.47;89.63
10261;BME280;5175;42.606;23.388;2022-10-22T01:26:32;94504.50;;;6.43;89.82
10261;BME280;5175;42.606;23.388;2022-10-22T01:29:08;94518.53;;;6.55;90.03
10261;BME280;5175;42.606;23.388;2022-10-22T01:31:40;94518.53;;;6.55;89.83
10261;BME280;5175;42.606;23.388;2022-10-22T01:34:11;94512.31;;;6.49;90.48
10261;BME280;5175;42.606;23.388;2022-10-22T01:36:40;94518.41;;;6.50;90.72
10261;BME280;5175;42.606;23.388;2022-10-22T01:39:08;94510.75;;;6.37;90.58
10261;BME280;5175;42.606;23.388;2022-10-22T01:41:38;94508.09;;;6.37;90.49
10261;BME280;5175;42.606;23.388;2022-10-22T01:44:22;94496.13;;;6.22;90.28
10261;BME280;5175;42.606;23.388;2022-10-22T01:46:51;94473.34;;;6.10;89.39
10261;BME280;5175;42.606;23.388;2022-10-22T01:49:27;94484.25;;;6.25;89.43
10261;BME280;5175;42.606;23.388;2022-10-22T01:52:03;94497.50;;;6.37;89.85
10261;BME280;5175;42.606;23.388;2022-10-22T01:54:42;94473.25;;;6.05;89.25
10261;BME280;5175;42.606;23.388;2022-10-22T01:57:16;94416.06;;;5.57;89.28
10261;BME280;5175;42.606;23.388;2022-10-22T01:59:53;94501.69;;;6.21;89.12
10261;BME280;5175;42.606;23.388;2022-10-22T02:02:30;94500.13;;;5.85;84.31
10261;BME280;5175;42.606;23.388;2022-10-22T02:05:04;94510.78;;;6.13;86.30
10261;BME280;5175;42.606;23.388;2022-10-22T02:07:37;94499.50;;;6.06;87.52
10261;BME280;5175;42.606;23.388;2022-10-22T02:10:08;94509.75;;;6.03;87.07
10261;BME280;5175;42.606;23.388;2022-10-22T02:12:37;94481.44;;;5.92;87.36
10261;BME280;5175;42.606;23.388;2022-10-22T02:15:07;94505.72;;;6.12;87.08
10261;BME280;5175;42.606;23.388;2022-10-22T02:17:36;94499.03;;;6.21;88.06
10261;BME280;5175;42.606;23.388;2022-10-22T02:20:09;94507.13;;;6.03;85.92
10261;BME280;5175;42.606;23.388;2022-10-22T02:22:37;94506.66;;;6.06;85.59
10261;BME280;5175;42.606;23.388;2022-10-22T02:25:05;94499.88;;;5.98;85.56
10261;BME280;5175;42.606;23.388;2022-10-22T02:27:38;94509.66;;;5.98;85.79
10261;BME280;5175;42.606;23.388;2022-10-22T02:30:10;94500.44;;;5.77;83.15
10261;BME280;5175;42.606;23.388;2022-10-22T02:32:42;94486.03;;;5.38;79.88
10261;BME280;5175;42.606;23.388;2022-10-22T02:35:17;94479.38;;;5.59;81.34
10261;BME280;5175;42.606;23.388;2022-10-22T02:37:46;94475.88;;;5.70;83.47
10261;BME280;5175;42.606;23.388;2022-10-22T02:40:14;94490.53;;;5.73;85.21
10261;BME280;5175;42.606;23.388;2022-10-22T02:42:41;94505.81;;;5.70;86.91
10261;BME280;5175;42.606;23.388;2022-10-22T02:45:10;94516.66;;;5.69;86.54
10261;BME280;5175;42.606;23.388;2022-10-22T02:47:37;94494.78;;;5.62;88.49
10261;BME280;5175;42.606;23.388;2022-10-22T02:50:05;94513.22;;;5.57;88.49
10261;BME280;5175;42.606;23.388;2022-10-22T02:52:32;94498.59;;;5.54;88.69
10261;BME280;5175;42.606;23.388;2022-10-22T02:54:59;94496.97;;;5.65;90.18
10261;BME280;5175;42.606;23.388;2022-10-22T02:57:26;94523.69;;;5.75;89.66
10261;BME280;5175;42.606;23.388;2022-10-22T02:59:54;94512.97;;;5.70;90.33
10261;BME280;5175;42.606;23.388;2022-10-22T03:02:22;94536.38;;;5.85;90.41
10261;BME280;5175;42.606;23.388;2022-10-22T03:04:52;94500.06;;;5.74;90.66
10261;BME280;5175;42.606;23.388;2022-10-22T03:07:19;94525.06;;;5.66;88.90
10261;BME280;5175;42.606;23.388;2022-10-22T03:09:46;94526.56;;;5.74;88.33
10261;BME280;5175;42.606;23.388;2022-10-22T03:12:13;94527.47;;;5.44;84.40
10261;BME280;5175;42.606;23.388;2022-10-22T03:14:40;94518.94;;;5.42;83.19
10261;BME280;5175;42.606;23.388;2022-10-22T03:17:06;94517.53;;;5.40;81.88
10261;BME280;5175;42.606;23.388;2022-10-22T03:19:35;94521.25;;;5.62;84.02
10261;BME280;5175;42.606;23.388;2022-10-22T03:22:05;94514.72;;;5.64;85.92
10261;BME280;5175;42.606;23.388;2022-10-22T03:24:35;94522.41;;;5.78;87.17
10261;BME280;5175;42.606;23.388;2022-10-22T03:27:02;94511.25;;;5.64;87.07
10261;BME280;5175;42.606;23.388;2022-10-22T03:29:30;94507.31;;;5.55;87.96
10261;BME280;5175;42.606;23.388;2022-10-22T03:31:58;94508.25;;;5.72;89.05
10261;BME280;5175;42.606;23.388;2022-10-22T03:34:25;94499.38;;;5.78;89.56
10261;BME280;5175;42.606;23.388;2022-10-22T03:36:55;94495.13;;;5.77;89.75
10261;BME280;5175;42.606;23.388;2022-10-22T03:39:23;94508.69;;;5.81;89.87
10261;BME280;5175;42.606;23.388;2022-10-22T03:41:51;94500.66;;;5.76;90.24
10261;BME280;5175;42.606;23.388;2022-10-22T03:44:19;94509.53;;;5.69;90.19
10261;BME280;5175;42.606;23.388;2022-10-22T03:46:47;94488.78;;;5.55;90.13
10261;BME280;5175;42.606;23.388;2022-10-22T03:49:14;94497.19;;;5.63;89.82
10261;BME280;5175;42.606;23.388;2022-10-22T03:51:41;94488.81;;;5.66;90.07
10261;BME280;5175;42.606;23.388;2022-10-22T03:54:09;94489.72;;;5.60;89.29
10261;BME280;5175;42.606;23.388;2022-10-22T03:56:36;94495.00;;;5.60;89.44
10261;BME280;5175;42.606;23.388;2022-10-22T03:59:03;94498.47;;;5.61;89.57
10261;BME280;5175;42.606;23.388;2022-10-22T04:01:30;94491.81;;;5.47;88.94
10261;BME280;5175;42.606;23.388;2022-10-22T04:03:57;94498.34;;;5.44;89.37
10261;BME280;5175;42.606;23.388;2022-10-22T04:06:24;94516.06;;;5.55;89.66
10261;BME280;5175;42.606;23.388;2022-10-22T04:08:51;94515.38;;;5.48;89.55
10261;BME280;5175;42.606;23.388;2022-10-22T04:11:19;94503.88;;;5.31;88.73
10261;BME280;5175;42.606;23.388;2022-10-22T04:13:46;94508.56;;;5.29;87.87
10261;BME280;5175;42.606;23.388;2022-10-22T04:16:15;94508.47;;;5.47;88.63
10261;BME280;5175;42.606;23.388;2022-10-22T04:18:43;94498.94;;;5.46;87.65
10261;BME280;5175;42.606;23.388;2022-10-22T04:21:12;94488.34;;;5.46;87.06
10261;BME280;5175;42.606;23.388;2022-10-22T04:23:44;94485.56;;;5.30;85.24
10261;BME280;5175;42.606;23.388;2022-10-22T04:26:11;94490.50;;;5.38;85.75
10261;BME280;5175;42.606;23.388;2022-10-22T04:28:39;94468.28;;;5.27;83.34
10261;BME280;5175;42.606;23.388;2022-10-22T04:31:08;94481.19;;;5.35;81.78
10261;BME280;5175;42.606;23.388;2022-10-22T04:33:34;94479.13;;;5.26;81.24
10261;BME280;5175;42.606;23.388;2022-10-22T04:36:05;94415.72;;;5.07;82.54
10261;BME280;5175;42.606;23.388;2022-10-22T04:38:33;94457.81;;;5.09;81.59
10261;BME280;5175;42.606;23.388;2022-10-22T04:41:07;94467.94;;;5.00;80.48
10261;BME280;5175;42.606;23.388;2022-10-22T04:43:34;94481.31;;;5.29;83.24
10261;BME280;5175;42.606;23.388;2022-10-22T04:46:03;94493.97;;;5.50;86.13
10261;BME280;5175;42.606;23.388;2022-10-22T04:48:29;94494.06;;;5.55;87.00
10261;BME280;5175;42.606;23.388;2022-10-22T04:50:56;94490.28;;;5.51;85.49
10261;BME280;5175;42.606;23.388;2022-10-22T04:53:30;94487.88;;;5.73;87.76
10261;BME280;5175;42.606;23.388;2022-10-22T04:56:05;94485.81;;;5.51;85.11
10261;BME280;5175;42.606;23.388;2022-10-22T04:58:32;94483.84;;;5.35;82.53
10261;BME280;5175;42.606;23.388;2022-10-22T05:00:59;94489.50;;;5.39;82.19
10261;BME280;5175;42.606;23.388;2022-10-22T05:03:28;94501.34;;;5.48;83.58
10261;BME280;5175;42.606;23.388;2022-10-22T05:05:54;94506.41;;;5.61;84.66
10261;BME280;5175;42.606;23.388;2022-10-22T05:08:21;94512.16;;;5.58;84.84
10261;BME280;5175;42.606;23.388;2022-10-22T05:10:48;94502.75;;;5.85;87.04
10261;BME280;5175;42.606;23.388;2022-10-22T05:13:15;94505.16;;;5.87;86.53
10261;BME280;5175;42.606;23.388;2022-10-22T05:15:41;94504.91;;;5.77;86.08
10261;BME280;5175;42.606;23.388;2022-10-22T05:18:08;94513.78;;;5.94;87.01
10261;BME280;5175;42.606;23.388;2022-10-22T05:20:39;94531.63;;;6.10;88.18
10261;BME280;5175;42.606;23.388;2022-10-22T05:23:06;94533.69;;;6.19;89.01
10261;BME280;5175;42.606;23.388;2022-10-22T05:25:36;94536.47;;;6.13;88.18
10261;BME280;5175;42.606;23.388;2022-10-22T05:28:03;94467.50;;;5.73;88.62
10261;BME280;5175;42.606;23.388;2022-10-22T05:30:30;94532.66;;;6.20;88.79
10261;BME280;5175;42.606;23.388;2022-10-22T05:32:56;94531.13;;;6.24;89.25
10261;BME280;5175;42.606;23.388;2022-10-22T05:35:23;94517.91;;;6.24;90.12
10261;BME280;5175;42.606;23.388;2022-10-22T05:37:51;94528.03;;;6.39;90.77
10261;BME280;5175;42.606;23.388;2022-10-22T05:40:18;94528.69;;;6.46;90.94
10261;BME280;5175;42.606;23.388;2022-10-22T05:42:45;94533.63;;;6.54;91.38
10261;BME280;5175;42.606;23.388;2022-10-22T05:45:12;94539.03;;;6.48;90.41
10261;BME280;5175;42.606;23.388;2022-10-22T05:47:39;94539.13;;;6.64;91.34
10261;BME280;5175;42.606;23.388;2022-10-22T05:50:06;94535.09;;;6.62;91.40
10261;BME280;5175;42.606;23.388;2022-10-22T05:52:33;94531.84;;;6.71;91.43
10261;BME280;5175;42.606;23.388;2022-10-22T05:55:02;94526.72;;;6.81;92.05
10261;BME280;5175;42.606;23.388;2022-10-22T05:57:29;94523.88;;;6.71;90.36
10261;BME280;5175;42.606;23.388;2022-10-22T05:59:55;94511.38;;;6.83;91.46
10261;BME280;5175;42.606;23.388;2022-10-22T06:02:22;94523.69;;;6.89;89.72
10261;BME280;5175;42.606;23.388;2022-10-22T06:04:49;94525.22;;;6.85;88.52
10261;BME280;5175;42.606;23.388;2022-10-22T06:07:16;94525.91;;;7.09;89.07
10261;BME280;5175;42.606;23.388;2022-10-22T06:09:43;94523.22;;;7.37;91.59
10261;BME280;5175;42.606;23.388;2022-10-22T06:12:13;94532.09;;;7.60;92.93
10261;BME280;5175;42.606;23.388;2022-10-22T06:14:40;94538.44;;;7.75;93.67
10261;BME280;5175;42.606;23.388;2022-10-22T06:17:08;94535.53;;;7.93;94.39
10261;BME280;5175;42.606;23.388;2022-10-22T06:19:35;94542.50;;;8.16;94.79
10261;BME280;5175;42.606;23.388;2022-10-22T06:22:02;94515.66;;;7.96;94.21
10261;BME280;5175;42.606;23.388;2022-10-22T06:24:29;94540.22;;;8.25;94.76
10261;BME280;5175;42.606;23.388;2022-10-22T06:26:56;94540.59;;;8.50;95.59
10261;BME280;5175;42.606;23.388;2022-10-22T06:29:24;94557.63;;;8.70;96.05
10261;BME280;5175;42.606;23.388;2022-10-22T06:31:51;94553.56;;;8.90;95.80
10261;BME280;5175;42.606;23.388;2022-10-22T06:34:18;94551.13;;;9.10;96.07
10261;BME280;5175;42.606;23.388;2022-10-22T06:36:46;94552.38;;;9.24;95.97
10261;BME280;5175;42.606;23.388;2022-10-22T06:39:15;94548.81;;;9.45;96.25
10261;BME280;5175;42.606;23.388;2022-10-22T06:41:42;94548.47;;;9.63;96.21
10261;BME280;5175;42.606;23.388;2022-10-22T06:44:12;94555.13;;;9.66;96.07
10261;BME280;5175;42.606;23.388;2022-10-22T06:46:41;94508.69;;;9.52;96.12
10261;BME280;5175;42.606;23.388;2022-10-22T06:49:11;94559.97;;;10.00;96.06
10261;BME280;5175;42.606;23.388;2022-10-22T06:51:38;94554.06;;;9.93;95.89
10261;BME280;5175;42.606;23.388;2022-10-22T06:54:05;94558.00;;;10.23;95.52
10261;BME280;5175;42.606;23.388;2022-10-22T06:56:32;94562.91;;;10.36;95.39
10261;BME280;5175;42.606;23.388;2022-10-22T06:58:59;94550.59;;;10.30;95.40
10261;BME280;5175;42.606;23.388;2022-10-22T07:01:31;94554.72;;;10.47;95.41
10261;BME280;5175;42.606;23.388;2022-10-22T07:04:00;94550.00;;;10.69;94.82
10261;BME280;5175;42.606;23.388;2022-10-22T07:06:28;94562.00;;;10.67;94.77
10261;BME280;5175;42.606;23.388;2022-10-22T07:08:56;94562.88;;;10.83;94.66
10261;BME280;5175;42.606;23.388;2022-10-22T07:11:25;94555.22;;;11.01;93.86
10261;BME280;5175;42.606;23.388;2022-10-22T07:13:53;94560.63;;;11.21;93.76
10261;BME280;5175;42.606;23.388;2022-10-22T07:16:20;94552.66;;;11.31;94.20
10261;BME280;5175;42.606;23.388;2022-10-22T07:18:49;94559.88;;;11.46;93.16
10261;BME280;5175;42.606;23.388;2022-10-22T07:21:18;94549.72;;;11.58;92.98
10261;BME280;5175;42.606;23.388;2022-10-22T07:23:46;94552.47;;;11.73;92.13
10261;BME280;5175;42.606;23.388;2022-10-22T07:26:15;94550.34;;;11.75;92.28
10261;BME280;5175;42.606;23.388;2022-10-22T07:28:42;94554.63;;;11.97;91.49
10261;BME280;5175;42.606;23.388;2022-10-22T07:31:11;94559.16;;;11.96;91.14
10261;BME280;5175;42.606;23.388;2022-10-22T07:33:38;94546.03;;;12.10;90.10
10261;BME280;5175;42.606;23.388;2022-10-22T07:36:07;94544.16;;;12.30;89.13
10261;BME280;5175;42.606;23.388;2022-10-22T07:38:36;94508.84;;;12.23;88.49
10261;BME280;5175;42.606;23.388;2022-10-22T07:41:03;94554.25;;;12.64;87.68
10261;BME280;5175;42.606;23.388;2022-10-22T07:43:30;94544.63;;;12.63;87.61
10261;BME280;5175;42.606;23.388;2022-10-22T07:45:57;94556.66;;;12.70;87.34
10261;BME280;5175;42.606;23.388;2022-10-22T07:48:27;94552.06;;;12.86;86.74
10261;BME280;5175;42.606;23.388;2022-10-22T07:50:54;94540.00;;;12.83;88.74
10261;BME280;5175;42.606;23.388;2022-10-22T07:53:21;94539.03;;;13.23;85.71
10261;BME280;5175;42.606;23.388;2022-10-22T07:55:50;94548.09;;;13.37;84.62
10261;BME280;5175;42.606;23.388;2022-10-22T07:58:17;94532.22;;;13.46;82.12
10261;BME280;5175;42.606;23.388;2022-10-22T08:00:45;94533.84;;;13.47;81.31
10261;BME280;5175;42.606;23.388;2022-10-22T08:03:13;94525.94;;;13.65;80.55
10261;BME280;5175;42.606;23.388;2022-10-22T08:05:40;94531.00;;;13.67;80.32
10261;BME280;5175;42.606;23.388;2022-10-22T08:08:08;94534.03;;;13.60;79.25
10261;BME280;5175;42.606;23.388;2022-10-22T08:10:35;94514.25;;;13.46;78.26
10261;BME280;5175;42.606;23.388;2022-10-22T08:13:04;94543.50;;;13.81;76.80
10261;BME280;5175;42.606;23.388;2022-10-22T08:15:32;94529.78;;;13.88;77.57
10261;BME280;5175;42.606;23.388;2022-10-22T08:17:58;94541.25;;;13.99;76.77
10261;BME280;5175;42.606;23.388;2022-10-22T08:20:25;94525.03;;;14.14;75.66
10261;BME280;5175;42.606;23.388;2022-10-22T08:22:52;94526.97;;;14.37;74.20
10261;BME280;5175;42.606;23.388;2022-10-22T08:25:19;94535.69;;;14.53;72.86
10261;BME280;5175;42.606;23.388;2022-10-22T08:27:46;94525.81;;;14.48;71.94
10261;BME280;5175;42.606;23.388;2022-10-22T08:30:14;94531.94;;;14.49;73.68
10261;BME280;5175;42.606;23.388;2022-10-22T08:32:41;94524.03;;;14.86;71.60
10261;BME280;5175;42.606;23.388;2022-10-22T08:35:09;94519.75;;;14.85;70.77
10261;BME280;5175;42.606;23.388;2022-10-22T08:37:36;94527.75;;;14.90;70.38
10261;BME280;5175;42.606;23.388;2022-10-22T08:40:03;94530.78;;;15.07;69.93
10261;BME280;5175;42.606;23.388;2022-10-22T08:42:52;94526.53;;;15.25;68.94
10261;BME280;5175;42.606;23.388;2022-10-22T08:45:31;94527.34;;;15.25;67.98
10261;BME280;5175;42.606;23.388;2022-10-22T08:48:10;94531.53;;;15.31;67.62
10261;BME280;5175;42.606;23.388;2022-10-22T08:50:46;94536.50;;;15.43;67.78
10261;BME280;5175;42.606;23.388;2022-10-22T08:53:17;94533.47;;;15.49;67.49
10261;BME280;5175;42.606;23.388;2022-10-22T08:55:45;94536.44;;;15.66;66.89
10261;BME280;5175;42.606;23.388;2022-10-22T08:58:19;94511.50;;;15.42;67.47
10261;BME280;5175;42.606;23.388;2022-10-22T09:00:55;94531.28;;;15.89;65.08
10261;BME280;5175;42.606;23.388;2022-10-22T09:03:32;94534.78;;;15.89;64.06
10261;BME280;5175;42.606;23.388;2022-10-22T09:06:06;94535.94;;;15.83;63.73
10261;BME280;5175;42.606;23.388;2022-10-22T09:08:35;94531.56;;;15.87;63.99
10261;BME280;5175;42.606;23.388;2022-10-22T09:11:08;94526.97;;;15.88;64.39
10261;BME280;5175;42.606;23.388;2022-10-22T09:13:40;94533.50;;;16.19;62.52
10261;BME280;5175;42.606;23.388;2022-10-22T09:16:14;94531.03;;;16.36;62.45
10261;BME280;5175;42.606;23.388;2022-10-22T09:18:51;94530.41;;;16.25;62.28
10261;BME280;5175;42.606;23.388;2022-10-22T09:21:28;94521.25;;;16.26;65.55
10261;BME280;5175;42.606;23.388;2022-10-22T09:24:05;94522.13;;;16.54;62.62
10261;BME280;5175;42.606;23.388;2022-10-22T09:26:37;94528.72;;;16.62;62.79
10261;BME280;5175;42.606;23.388;2022-10-22T09:29:05;94526.06;;;16.75;60.33
10261;BME280;5175;42.606;23.388;2022-10-22T09:31:33;94525.06;;;16.71;60.44
10261;BME280;5175;42.606;23.388;2022-10-22T09:34:00;94521.44;;;16.62;61.34
10261;BME280;5175;42.606;23.388;2022-10-22T09:36:32;94512.97;;;16.82;60.92
10261;BME280;5175;42.606;23.388;2022-10-22T09:39:00;94516.38;;;16.88;60.47
10261;BME280;5175;42.606;23.388;2022-10-22T09:41:29;94510.00;;;16.84;59.70
10261;BME280;5175;42.606;23.388;2022-10-22T09:43:56;94510.78;;;16.71;59.27
10261;BME280;5175;42.606;23.388;2022-10-22T09:46:26;94499.50;;;16.82;60.97
10261;BME280;5175;42.606;23.388;2022-10-22T09:49:01;94501.50;;;16.90;59.73
10261;BME280;5175;42.606;23.388;2022-10-22T09:51:39;94488.13;;;16.85;62.34
10261;BME280;5175;42.606;23.388;2022-10-22T09:54:16;94479.72;;;17.28;61.97
10261;BME280;5175;42.606;23.388;2022-10-22T09:56:51;94476.78;;;17.38;57.85
10261;BME280;5175;42.606;23.388;2022-10-22T09:59:25;94481.06;;;17.39;58.28
10261;BME280;5175;42.606;23.388;2022-10-22T10:01:59;94483.75;;;17.39;57.59
10261;BME280;5175;42.606;23.388;2022-10-22T10:04:33;94479.03;;;17.09;58.34
10261;BME280;5175;42.606;23.388;2022-10-22T10:07:00;94487.38;;;17.21;58.75
10261;BME280;5175;42.606;23.388;2022-10-22T10:09:29;94479.75;;;17.36;58.73
10261;BME280;5175;42.606;23.388;2022-10-22T10:12:05;94482.94;;;17.52;57.05
10261;BME280;5175;42.606;23.388;2022-10-22T10:14:40;94481.94;;;17.48;56.65
10261;BME280;5175;42.606;23.388;2022-10-22T10:17:18;94465.19;;;17.37;57.31
10261;BME280;5175;42.606;23.388;2022-10-22T10:19:58;94455.81;;;17.35;58.08
10261;BME280;5175;42.606;23.388;2022-10-22T10:22:40;94473.22;;;17.15;57.09
10261;BME280;5175;42.606;23.388;2022-10-22T10:25:23;94482.75;;;17.48;57.81
10261;BME280;5175;42.606;23.388;2022-10-22T10:27:56;94478.25;;;17.58;56.88
10261;BME280;5175;42.606;23.388;2022-10-22T10:30:26;94473.22;;;17.65;56.83
10261;BME280;5175;42.606;23.388;2022-10-22T10:33:13;94461.78;;;17.81;56.38
10261;BME280;5175;42.606;23.388;2022-10-22T10:35:48;94446.75;;;17.67;57.78
10261;BME280;5175;42.606;23.388;2022-10-22T10:38:41;94454.78;;;17.80;57.34
10261;BME280;5175;42.606;23.388;2022-10-22T10:41:19;94444.59;;;17.99;58.08
10261;BME280;5175;42.606;23.388;2022-10-22T10:44:10;94440.84;;;18.09;56.33
10261;BME280;5175;42.606;23.388;2022-10-22T10:46:48;94442.84;;;18.26;55.32
10261;BME280;5175;42.606;23.388;2022-10-22T10:49:19;94439.81;;;18.27;55.59
10261;BME280;5175;42.606;23.388;2022-10-22T10:51:54;94421.19;;;18.17;55.63
10261;BME280;5175;42.606;23.388;2022-10-22T10:54:32;94420.19;;;18.44;53.88
10261;BME280;5175;42.606;23.388;2022-10-22T10:57:03;94422.88;;;18.44;54.01
10261;BME280;5175;42.606;23.388;2022-10-22T10:59:44;94428.44;;;18.39;52.45
10261;BME280;5175;42.606;23.388;2022-10-22T11:02:44;94405.91;;;18.43;55.31
10261;BME280;5175;42.606;23.388;2022-10-22T11:05:33;94386.13;;;18.56;54.68
10261;BME280;5175;42.606;23.388;2022-10-22T11:08:10;94397.41;;;18.67;54.28
10261;BME280;5175;42.606;23.388;2022-10-22T11:10:43;94399.34;;;18.75;54.39
10261;BME280;5175;42.606;23.388;2022-10-22T11:13:17;94343.06;;;18.68;55.19
10261;BME280;5175;42.606;23.388;2022-10-22T11:15:50;94388.63;;;19.09;52.50
10261;BME280;5175;42.606;23.388;2022-10-22T11:18:22;94366.50;;;19.16;55.06
10261;BME280;5175;42.606;23.388;2022-10-22T11:21:00;94366.34;;;19.21;52.61
10261;BME280;5175;42.606;23.388;2022-10-22T11:23:35;94369.84;;;19.21;54.35
10261;BME280;5175;42.606;23.388;2022-10-22T11:26:05;94360.66;;;19.40;51.70
10261;BME280;5175;42.606;23.388;2022-10-22T11:28:39;94329.72;;;19.23;52.78
10261;BME280;5175;42.606;23.388;2022-10-22T11:31:12;94363.16;;;19.70;52.86
10261;BME280;5175;42.606;23.388;2022-10-22T11:33:43;94353.47;;;19.52;53.95
10261;BME280;5175;42.606;23.388;2022-10-22T11:36:11;94348.69;;;19.58;51.69
10261;BME280;5175;42.606;23.388;2022-10-22T11:38:40;94340.06;;;19.81;51.52
10261;BME280;5175;42.606;23.388;2022-10-22T11:41:11;94338.63;;;19.84;51.95
10261;BME280;5175;42.606;23.388;2022-10-22T11:43:56;94334.69;;;19.64;51.08
10261;BME280;5175;42.606;23.388;2022-10-22T11:46:27;94328.44;;;19.72;51.84
10261;BME280;5175;42.606;23.388;2022-10-22T11:49:18;94324.28;;;19.83;51.51
10261;BME280;5175;42.606;23.388;2022-10-22T11:51:48;94337.94;;;19.95;50.93
10261;BME280;5175;42.606;23.388;2022-10-22T11:54:36;94338.28;;;19.85;51.85
10261;BME280;5175;42.606;23.388;2022-10-22T11:57:21;94316.31;;;19.87;48.18
10261;BME280;5175;42.606;23.388;2022-10-22T11:59:53;94325.91;;;20.22;48.94
10261;BME280;5175;42.606;23.388;2022-10-22T12:02:28;94327.53;;;20.23;50.36
10261;BME280;5175;42.606;23.388;2022-10-22T12:05:17;94326.78;;;19.97;48.40
10261;BME280;5175;42.606;23.388;2022-10-22T12:07:52;94321.88;;;20.37;50.04
10261;BME280;5175;42.606;23.388;2022-10-22T12:10:26;94317.78;;;20.31;49.26
10261;BME280;5175;42.606;23.388;2022-10-22T12:12:55;94313.53;;;20.50;49.37
10261;BME280;5175;42.606;23.388;2022-10-22T12:15:26;94317.75;;;20.69;50.34
10261;BME280;5175;42.606;23.388;2022-10-22T12:17:58;94312.59;;;20.76;50.11
10261;BME280;5175;42.606;23.388;2022-10-22T12:20:26;94311.69;;;20.92;47.86
10261;BME280;5175;42.606;23.388;2022-10-22T12:22:54;94296.47;;;20.79;47.54
10261;BME280;5175;42.606;23.388;2022-10-22T12:25:29;94301.09;;;20.99;49.36
10261;BME280;5175;42.606;23.388;2022-10-22T12:27:57;94287.88;;;21.18;48.56
10261;BME280;5175;42.606;23.388;2022-10-22T12:30:26;94296.50;;;21.20;48.49
10261;BME280;5175;42.606;23.388;2022-10-22T12:32:54;94273.84;;;21.16;48.36
10261;BME280;5175;42.606;23.388;2022-10-22T12:35:23;94294.38;;;21.47;47.81
10261;BME280;5175;42.606;23.388;2022-10-22T12:37:53;94307.78;;;21.64;48.44
10261;BME280;5175;42.606;23.388;2022-10-22T12:40:24;94299.41;;;21.69;47.76
10261;BME280;5175;42.606;23.388;2022-10-22T12:42:53;94292.34;;;21.89;47.38
10261;BME280;5175;42.606;23.388;2022-10-22T12:45:21;94297.13;;;22.04;45.47
10261;BME280;5175;42.606;23.388;2022-10-22T12:47:50;94297.78;;;21.89;46.15
10261;BME280;5175;42.606;23.388;2022-10-22T12:50:19;94298.81;;;21.96;44.61
10261;BME280;5175;42.606;23.388;2022-10-22T12:52:47;94287.63;;;22.10;44.03
10261;BME280;5175;42.606;23.388;2022-10-22T12:55:16;94286.66;;;22.38;43.99
10261;BME280;5175;42.606;23.388;2022-10-22T12:57:47;94294.69;;;22.59;42.29
10261;BME280;5175;42.606;23.388;2022-10-22T13:00:22;94272.94;;;22.23;43.10
10261;BME280;5175;42.606;23.388;2022-10-22T13:02:50;94283.44;;;22.24;44.20
10261;BME280;5175;42.606;23.388;2022-10-22T13:05:22;94284.25;;;22.37;44.00
10261;BME280;5175;42.606;23.388;2022-10-22T13:07:53;94275.78;;;22.38;44.39
10261;BME280;5175;42.606;23.388;2022-10-22T13:10:24;94275.31;;;22.61;41.96
10261;BME280;5175;42.606;23.388;2022-10-22T13:12:55;94275.31;;;22.61;43.99
10261;BME280;5175;42.606;23.388;2022-10-22T13:15:35;94276.69;;;22.67;42.74
10261;BME280;5175;42.606;23.388;2022-10-22T13:18:05;94269.88;;;22.85;41.97
10261;BME280;5175;42.606;23.388;2022-10-22T13:20:32;94273.59;;;22.92;44.53
10261;BME280;5175;42.606;23.388;2022-10-22T13:23:03;94273.81;;;23.27;41.50